createdAt,value
2023-03-01T05:03:30.226Z,-2.25
2023-03-01T05:07:41.861Z,-2.28
2023-03-01T05:11:53.386Z,-2.22
2023-03-01T05:16:06.243Z,-2.29
2023-03-01T05:20:18.390Z,-2.24
2023-03-01T05:24:31.330Z,-2.26
2023-03-01T05:28:42.827Z,-2.28
2023-03-01T05:32:56.693Z,-2.28
2023-03-01T05:37:09.302Z,-2.29
2023-03-01T05:41:20.756Z,-2.27
2023-03-01T05:45:35.532Z,-2.36
2023-03-01T05:49:46.972Z,-2.45
2023-03-01T05:53:58.411Z,-2.46
2023-03-01T05:58:14.943Z,-2.43
2023-03-01T06:02:26.481Z,-2.55
2023-03-01T06:06:40.725Z,-2.47
2023-03-01T06:10:52.187Z,-2.43
2023-03-01T06:15:05.486Z,-2.42
2023-03-01T06:19:16.927Z,-2.48
2023-03-01T06:23:28.403Z,-2.40
2023-03-01T06:27:40.804Z,-2.33
2023-03-01T06:31:52.265Z,-2.19
2023-03-01T06:36:04.768Z,-2.26
2023-03-01T06:40:17.196Z,-2.28
2023-03-01T06:44:28.796Z,-2.21
2023-03-01T06:48:40.292Z,-2.16
2023-03-01T06:52:57.365Z,-2.11
2023-03-01T06:57:08.878Z,-1.55
2023-03-01T07:01:20.336Z,-1.37
2023-03-01T07:05:34.060Z,-1.31
2023-03-01T07:09:46.577Z,-1.16
2023-03-01T07:13:59.318Z,-0.96
2023-03-01T07:18:10.778Z,-1.05
2023-03-01T07:22:22.243Z,-1.07
2023-03-01T07:26:33.843Z,-0.95
2023-03-01T07:30:45.675Z,-0.73
2023-03-01T07:34:57.126Z,-1.07
2023-03-01T07:39:08.672Z,-0.75
2023-03-01T07:43:21.591Z,-0.45
2023-03-01T07:47:33.611Z,-0.54
2023-03-01T07:51:45.040Z,-0.56
2023-03-01T07:56:10.938Z,-0.50
2023-03-01T08:00:22.570Z,-0.43
2023-03-01T08:04:34.622Z,-0.38
2023-03-01T08:08:46.709Z,-0.46
2023-03-01T08:12:58.188Z,-0.32
2023-03-01T08:17:09.776Z,-0.46
2023-03-01T08:21:21.414Z,-0.39
2023-03-01T08:25:32.931Z,-0.32
2023-03-01T08:29:44.399Z,-0.22
2023-03-01T08:33:58.147Z,-0.19
2023-03-01T08:38:09.713Z,-0.10
2023-03-01T08:42:21.167Z,0.13
2023-03-01T08:46:36.907Z,0.15
2023-03-01T08:50:48.387Z,0.33
2023-03-01T08:55:02.262Z,0.21
2023-03-01T08:59:15.276Z,0.49
2023-03-01T09:03:27.066Z,0.66
2023-03-01T09:07:38.534Z,0.61
2023-03-01T09:11:51.078Z,0.81
2023-03-01T09:16:04.741Z,0.86
2023-03-01T09:20:16.518Z,0.98
2023-03-01T09:24:27.992Z,0.97
2023-03-01T09:28:45.456Z,1.18
2023-03-01T09:33:00.092Z,1.32
2023-03-01T09:37:11.563Z,1.43
2023-03-01T09:41:26.227Z,1.58
2023-03-01T09:45:44.958Z,1.75
2023-03-01T09:50:03.058Z,1.98
2023-03-01T09:54:14.542Z,1.91
2023-03-01T09:58:42.396Z,2.09
2023-03-01T10:03:16.795Z,2.15
2023-03-01T10:07:56.951Z,2.20
2023-03-01T10:12:16.363Z,2.29
2023-03-01T10:16:41.247Z,2.51
2023-03-01T10:21:08.947Z,2.71
2023-03-01T10:25:43.737Z,2.67
2023-03-01T10:30:23.535Z,2.88
2023-03-01T10:34:36.914Z,3.04
2023-03-01T10:38:55.382Z,3.28
2023-03-01T10:43:07.286Z,3.42
2023-03-01T10:47:27.943Z,3.59
2023-03-01T10:51:41.892Z,3.51
2023-03-01T10:55:59.365Z,3.57
2023-03-01T11:00:13.973Z,3.75
2023-03-01T11:04:25.482Z,3.92
2023-03-01T11:08:43.980Z,4.02
2023-03-01T11:13:17.131Z,4.15
2023-03-01T11:17:36.525Z,4.20
2023-03-01T11:22:02.261Z,4.22
2023-03-01T11:26:16.410Z,4.02
2023-03-01T11:30:34.081Z,4.31
2023-03-01T11:34:55.900Z,4.49
2023-03-01T11:39:43.668Z,4.60
2023-03-01T11:44:22.515Z,4.60
2023-03-01T11:48:55.509Z,4.80
2023-03-01T11:53:30.639Z,4.88
2023-03-01T11:58:06.567Z,5.02
2023-03-01T12:02:45.875Z,5.07
2023-03-01T12:07:12.947Z,4.90
2023-03-01T12:11:36.461Z,5.14
2023-03-01T12:15:56.893Z,5.20
2023-03-01T12:20:28.859Z,5.26
2023-03-01T12:24:57.787Z,5.20
2023-03-01T12:29:57.185Z,5.26
2023-03-01T12:34:25.176Z,5.27
2023-03-01T12:38:55.397Z,5.32
2023-03-01T12:43:18.300Z,5.26
2023-03-01T12:48:04.929Z,5.59
2023-03-01T12:52:36.643Z,5.49
2023-03-01T12:56:53.424Z,5.38
2023-03-01T13:01:35.993Z,5.27
2023-03-01T13:06:09.760Z,5.42
2023-03-01T13:10:43.058Z,5.64
2023-03-01T13:14:55.227Z,5.67
2023-03-01T13:19:10.152Z,5.94
2023-03-01T13:23:21.642Z,6.00
2023-03-01T13:27:33.260Z,5.98
2023-03-01T13:31:47.837Z,6.11
2023-03-01T13:35:59.934Z,6.09
2023-03-01T13:40:19.261Z,6.01
2023-03-01T13:44:37.294Z,6.04
2023-03-01T13:48:54.244Z,6.01
2023-03-01T13:53:07.837Z,6.05
2023-03-01T13:57:26.957Z,5.99
2023-03-01T14:01:38.581Z,5.93
2023-03-01T14:06:15.708Z,6.07
2023-03-01T14:10:37.738Z,6.07
2023-03-01T14:15:15.218Z,6.13
2023-03-01T14:19:33.902Z,6.20
2023-03-01T14:23:47.787Z,6.35
2023-03-01T14:28:05.761Z,6.30
2023-03-01T14:32:25.985Z,6.34
2023-03-01T14:36:37.521Z,6.22
2023-03-01T14:40:55.942Z,6.13
2023-03-01T14:45:08.683Z,6.20
2023-03-01T14:49:22.980Z,6.24
2023-03-01T14:53:49.091Z,6.11
2023-03-01T14:58:06.258Z,6.27
2023-03-01T15:02:20.712Z,6.18
2023-03-01T15:06:32.597Z,6.21
2023-03-01T15:11:02.460Z,6.09
2023-03-01T15:15:22.004Z,6.18
2023-03-01T15:19:33.920Z,6.18
2023-03-01T15:24:01.966Z,6.12
2023-03-01T15:28:21.470Z,6.23
2023-03-01T15:32:35.682Z,6.20
2023-03-01T15:36:51.113Z,6.21
2023-03-01T15:41:27.428Z,6.30
2023-03-01T15:45:40.828Z,6.18
2023-03-01T15:49:55.662Z,6.14
2023-03-01T15:54:18.135Z,6.16
2023-03-01T15:58:29.671Z,6.11
2023-03-01T16:02:43.159Z,6.18
2023-03-01T16:06:57.739Z,6.17
2023-03-01T16:11:17.139Z,6.14
2023-03-01T16:15:35.452Z,6.14
2023-03-01T16:19:46.881Z,6.13
2023-03-01T16:23:58.361Z,6.15
2023-03-01T16:28:11.026Z,6.11
2023-03-01T16:32:22.585Z,6.05
2023-03-01T16:36:34.372Z,6.05
2023-03-01T16:40:51.328Z,6.07
2023-03-01T16:45:22.827Z,5.98
2023-03-01T16:49:37.584Z,5.78
2023-03-01T16:53:50.136Z,5.78
2023-03-01T16:58:02.919Z,5.66
2023-03-01T17:02:15.749Z,5.61
2023-03-01T17:06:27.599Z,5.46
2023-03-01T17:10:39.184Z,5.41
2023-03-01T17:14:51.565Z,5.43
2023-03-01T17:19:03.140Z,5.35
2023-03-01T17:23:14.659Z,5.25
2023-03-01T17:27:26.180Z,5.13
2023-03-01T17:31:37.724Z,5.18
2023-03-01T17:35:50.810Z,5.04
2023-03-01T17:40:02.482Z,4.88
2023-03-01T17:44:14.407Z,4.83
2023-03-01T17:48:26.950Z,4.79
2023-03-01T17:52:38.390Z,4.72
2023-03-01T17:56:50.496Z,4.61
2023-03-01T18:01:15.259Z,4.57
2023-03-01T18:05:27.389Z,4.48
2023-03-01T18:09:38.848Z,4.38
2023-03-01T18:13:51.157Z,4.26
2023-03-01T18:18:03.197Z,4.27
2023-03-01T18:22:15.064Z,4.15
2023-03-01T18:26:27.608Z,4.13
2023-03-01T18:30:39.243Z,3.99
2023-03-01T18:34:50.708Z,3.88
2023-03-01T18:39:04.053Z,3.74
2023-03-01T18:43:15.509Z,3.68
2023-03-01T18:47:26.974Z,3.67
2023-03-01T18:51:39.585Z,3.57
2023-03-01T18:55:51.115Z,3.41
2023-03-01T19:00:04.105Z,3.32
2023-03-01T19:04:15.854Z,3.38
2023-03-01T19:08:29.331Z,3.36
2023-03-01T19:12:40.789Z,3.46
2023-03-01T19:16:52.228Z,3.53
2023-03-01T19:21:04.877Z,3.59
2023-03-01T19:25:16.466Z,3.56
2023-03-01T19:29:27.915Z,3.63
2023-03-01T19:33:40.190Z,3.48
2023-03-01T19:37:51.669Z,3.49
2023-03-01T19:42:03.280Z,3.53
2023-03-01T19:46:16.303Z,3.41
2023-03-01T19:50:27.824Z,3.47
2023-03-01T19:54:39.336Z,3.38
2023-03-01T19:58:53.012Z,3.30
2023-03-01T20:03:04.674Z,3.18
2023-03-01T20:07:16.157Z,3.08
2023-03-01T20:11:27.630Z,3.09
2023-03-01T20:15:42.813Z,3.05
2023-03-01T20:19:54.320Z,3.05
2023-03-01T20:24:06.110Z,3.04
2023-03-01T20:28:19.539Z,2.99
2023-03-01T20:32:32.022Z,2.90
2023-03-01T20:36:44.209Z,2.79
2023-03-01T20:41:03.446Z,2.73
2023-03-01T20:45:14.927Z,2.67
2023-03-01T20:49:26.462Z,2.65
2023-03-01T20:53:38.102Z,2.54
2023-03-01T20:57:49.535Z,2.51
2023-03-01T21:02:01.055Z,2.48
2023-03-01T21:06:13.061Z,2.48
2023-03-01T21:10:24.754Z,2.43
2023-03-01T21:14:42.324Z,2.44
2023-03-01T21:18:54.019Z,2.25
2023-03-01T21:23:05.450Z,2.23
2023-03-01T21:27:17.191Z,2.27
2023-03-01T21:31:34.790Z,2.20
2023-03-01T21:35:46.324Z,2.16
2023-03-01T21:39:57.754Z,2.08
2023-03-01T21:44:09.487Z,2.09
2023-03-01T21:48:21.212Z,2.04
2023-03-01T21:52:35.399Z,2.06
2023-03-01T21:56:48.606Z,1.95
2023-03-01T22:01:09.337Z,1.84
2023-03-01T22:05:20.947Z,1.87
2023-03-01T22:09:34.889Z,1.84
2023-03-01T22:13:49.615Z,1.77
2023-03-01T22:18:01.142Z,1.78
2023-03-01T22:22:12.658Z,1.65
2023-03-01T22:26:31.604Z,1.68
